createdAt,value
2019-02-12T00:00:40.217Z,24.73
2019-02-12T00:03:10.338Z,25.00
2019-02-12T00:05:41.185Z,26.73
2019-02-12T00:08:11.643Z,27.40
2019-02-12T00:10:42.808Z,25.37
2019-02-12T00:13:16.276Z,23.73
2019-02-12T00:15:46.402Z,23.97
2019-02-12T00:18:17.699Z,24.03
2019-02-12T00:20:48.750Z,23.00
2019-02-12T00:23:18.770Z,23.50
2019-02-12T00:25:49.376Z,23.30
2019-02-12T00:28:21.052Z,22.17
2019-02-12T00:30:52.586Z,22.60
2019-02-12T00:33:22.729Z,21.47
2019-02-12T00:35:53.309Z,21.50
2019-02-12T00:38:23.340Z,21.87
2019-02-12T00:40:53.532Z,21.53
2019-02-12T00:43:23.665Z,20.47
2019-02-12T00:45:54.237Z,19.90
2019-02-12T00:48:24.281Z,18.63
2019-02-12T00:50:56.045Z,19.43
2019-02-12T00:53:25.196Z,19.33
2019-02-12T00:55:57.902Z,22.03
2019-02-12T00:58:28.210Z,20.50
2019-02-12T01:00:58.160Z,21.93
2019-02-12T01:03:29.253Z,21.77
2019-02-12T01:06:01.831Z,20.27
2019-02-12T01:08:33.847Z,20.47
2019-02-12T01:11:08.423Z,20.40
2019-02-12T01:13:38.663Z,20.60
2019-02-12T01:16:08.651Z,20.53
2019-02-12T01:18:39.577Z,20.77
2019-02-12T01:21:09.637Z,21.80
2019-02-12T01:23:41.902Z,20.97
2019-02-12T01:26:12.148Z,21.07
2019-02-12T01:28:43.026Z,22.67
2019-02-12T01:31:13.303Z,21.37
2019-02-12T01:33:43.665Z,21.97
2019-02-12T01:36:13.217Z,20.23
2019-02-12T01:38:46.751Z,21.63
2019-02-12T01:41:17.863Z,20.57
2019-02-12T01:43:51.138Z,22.00
2019-02-12T01:46:21.146Z,20.07
2019-02-12T01:48:51.425Z,21.27
2019-02-12T01:51:21.835Z,21.57
2019-02-12T01:53:58.611Z,20.43
2019-02-12T01:56:28.634Z,21.90
2019-02-12T01:58:59.159Z,22.03
2019-02-12T02:01:29.004Z,22.50
2019-02-12T02:04:02.533Z,22.47
2019-02-12T02:06:37.579Z,23.03
2019-02-12T02:09:14.856Z,22.70
2019-02-12T02:11:45.936Z,21.70
2019-02-12T02:14:16.496Z,22.33
2019-02-12T02:16:46.433Z,21.63
2019-02-12T02:19:19.662Z,20.90
2019-02-12T02:21:49.745Z,20.47
2019-02-12T02:24:21.077Z,19.33
2019-02-12T02:26:51.395Z,19.30
2019-02-12T02:29:22.061Z,18.23
2019-02-12T02:31:52.961Z,18.77
2019-02-12T02:34:24.677Z,17.23
2019-02-12T02:36:57.607Z,17.47
2019-02-12T02:39:29.861Z,15.87
2019-02-12T02:42:00.125Z,16.00
2019-02-12T02:44:30.846Z,16.37
2019-02-12T02:47:01.869Z,16.63
2019-02-12T02:49:35.196Z,15.57
2019-02-12T02:52:06.247Z,13.70
2019-02-12T02:54:37.436Z,18.77
2019-02-12T02:57:07.848Z,15.33
2019-02-12T02:59:38.157Z,14.73
2019-02-12T03:02:07.756Z,16.43
2019-02-12T03:04:41.102Z,16.53
2019-02-12T03:07:12.001Z,18.33
2019-02-12T03:09:42.207Z,17.50
2019-02-12T03:12:14.671Z,18.17
2019-02-12T03:14:44.991Z,18.23
2019-02-12T03:17:18.384Z,17.70
2019-02-12T03:19:49.179Z,18.43
2019-02-12T03:22:20.038Z,17.67
2019-02-12T03:24:51.852Z,17.57
2019-02-12T03:27:22.425Z,16.27
2019-02-12T03:29:52.321Z,16.77
2019-02-12T03:32:26.273Z,18.77
2019-02-12T03:35:01.437Z,16.73
2019-02-12T03:37:32.415Z,19.83
2019-02-12T03:40:02.495Z,20.63
2019-02-12T03:42:33.109Z,18.43
2019-02-12T03:45:07.859Z,17.47
2019-02-12T03:47:38.731Z,18.07
2019-02-12T03:50:10.166Z,18.13
2019-02-12T03:52:44.850Z,19.63
2019-02-12T03:55:16.646Z,18.60
2019-02-12T03:57:52.286Z,22.23
2019-02-12T04:00:22.893Z,19.47
2019-02-12T04:03:18.520Z,18.47
2019-02-12T04:05:49.761Z,18.87
2019-02-12T04:08:20.574Z,20.73
2019-02-12T04:10:51.195Z,19.70
2019-02-12T04:13:21.685Z,20.63
2019-02-12T04:15:52.189Z,19.47
2019-02-12T04:18:23.072Z,19.50
2019-02-12T04:20:53.297Z,21.27
2019-02-12T04:23:51.578Z,21.90
2019-02-12T04:26:25.399Z,19.47
2019-02-12T04:29:02.372Z,18.87
2019-02-12T04:31:33.948Z,19.67
2019-02-12T04:34:04.351Z,20.17
2019-02-12T04:36:35.501Z,20.07
2019-02-12T04:39:06.700Z,18.43
2019-02-12T04:41:37.641Z,19.30
2019-02-12T04:44:11.046Z,18.23
2019-02-12T04:46:42.312Z,18.37
2019-02-12T04:49:13.281Z,18.87
2019-02-12T04:51:43.410Z,19.03
2019-02-12T04:54:13.999Z,19.63
2019-02-12T04:56:44.191Z,19.67
2019-02-12T04:59:15.862Z,19.77
2019-02-12T05:01:46.553Z,19.77
2019-02-12T05:04:17.486Z,19.47
2019-02-12T05:06:47.927Z,18.63
2019-02-12T05:09:20.870Z,20.40
2019-02-12T05:11:53.806Z,17.73
2019-02-12T05:14:25.566Z,17.90
2019-02-12T05:16:56.655Z,17.60
2019-02-12T05:19:27.255Z,17.57
2019-02-12T05:21:58.035Z,17.37
2019-02-12T05:24:34.910Z,16.47
2019-02-12T05:27:05.667Z,17.13
2019-02-12T05:29:37.603Z,18.10
2019-02-12T05:32:10.574Z,19.53
2019-02-12T05:34:41.269Z,20.07
2019-02-12T05:37:11.734Z,17.03
2019-02-12T05:39:42.373Z,16.60
2019-02-12T05:42:13.633Z,16.70
2019-02-12T05:44:44.295Z,14.87
2019-02-12T05:47:14.855Z,15.77
2019-02-12T05:49:45.459Z,16.70
2019-02-12T05:52:15.920Z,15.20
2019-02-12T05:54:46.253Z,13.73
2019-02-12T05:57:16.675Z,14.60
2019-02-12T05:59:47.103Z,14.43
2019-02-12T06:02:16.934Z,13.30
2019-02-12T06:04:47.248Z,14.03
2019-02-12T06:07:18.506Z,14.47
2019-02-12T06:09:48.326Z,17.23
2019-02-12T06:12:17.897Z,14.80
2019-02-12T06:14:47.526Z,16.60
2019-02-12T06:17:17.402Z,16.70
2019-02-12T06:19:47.210Z,15.97
2019-02-12T06:22:20.808Z,16.70
2019-02-12T06:24:51.609Z,17.37
2019-02-12T06:27:25.591Z,15.97
2019-02-12T06:29:55.434Z,16.73
2019-02-12T06:32:25.467Z,18.37
2019-02-12T06:34:55.656Z,18.47
2019-02-12T06:37:29.394Z,19.27
2019-02-12T06:39:59.573Z,19.37
2019-02-12T06:42:29.208Z,17.03
2019-02-12T06:44:59.133Z,17.20
2019-02-12T06:47:29.169Z,17.53
2019-02-12T06:49:59.131Z,16.10
2019-02-12T06:52:30.945Z,15.40
2019-02-12T06:55:01.170Z,15.53
2019-02-12T06:57:31.883Z,16.40
2019-02-12T07:00:09.476Z,16.53
2019-02-12T07:03:10.974Z,16.80
2019-02-12T07:05:43.543Z,18.03
2019-02-12T07:08:45.474Z,18.93
2019-02-12T07:11:40.341Z,19.80
2019-02-12T07:14:53.782Z,19.50
2019-02-12T07:18:16.645Z,19.73
2019-02-12T07:21:20.341Z,21.20
2019-02-12T07:24:12.781Z,22.73
2019-02-12T07:27:25.249Z,22.43
2019-02-12T07:30:30.256Z,18.37
2019-02-12T07:33:34.946Z,20.10
2019-02-12T07:36:53.197Z,20.83
2019-02-12T07:39:42.335Z,20.37
2019-02-12T07:42:43.168Z,20.87
2019-02-12T07:45:51.425Z,20.73
2019-02-12T07:48:54.111Z,20.77
2019-02-12T07:52:12.317Z,19.60
2019-02-12T07:55:21.180Z,19.90
2019-02-12T07:58:38.157Z,19.03
2019-02-12T08:01:33.416Z,18.60
2019-02-12T08:04:49.145Z,16.47
2019-02-12T08:07:39.600Z,15.13
2019-02-12T08:10:45.464Z,17.50
2019-02-12T08:14:08.598Z,18.10
2019-02-12T08:17:09.868Z,18.90
2019-02-12T08:20:09.344Z,16.87
2019-02-12T08:23:20.367Z,16.63
2019-02-12T08:26:23.401Z,16.93
2019-02-12T08:29:49.541Z,17.03
2019-02-12T08:32:57.528Z,19.27
2019-02-12T08:36:14.587Z,17.73
2019-02-12T08:39:05.866Z,17.33
2019-02-12T08:42:24.981Z,17.43
2019-02-12T08:45:16.139Z,16.80
2019-02-12T08:48:45.328Z,17.40
2019-02-12T08:51:39.567Z,17.60
2019-02-12T08:54:55.114Z,17.33
2019-02-12T08:58:09.097Z,17.40
2019-02-12T09:01:23.277Z,16.60
2019-02-12T09:04:40.069Z,17.20
2019-02-12T09:07:40.493Z,17.63
2019-02-12T09:10:54.475Z,17.47
2019-02-12T09:14:11.566Z,16.57
2019-02-12T09:17:16.874Z,17.33
2019-02-12T09:20:28.269Z,17.53
2019-02-12T09:23:25.992Z,17.47
2019-02-12T09:26:33.519Z,17.97
2019-02-12T09:29:38.554Z,19.10
2019-02-12T09:33:01.898Z,19.77
2019-02-12T09:35:57.860Z,19.30
2019-02-12T09:39:09.053Z,19.80
2019-02-12T09:42:00.898Z,20.80
2019-02-12T09:45:07.431Z,20.03
2019-02-12T09:47:59.330Z,21.03
2019-02-12T09:51:14.959Z,21.83
2019-02-12T09:54:20.982Z,22.47
2019-02-12T09:57:21.654Z,22.37
2019-02-12T10:00:19.188Z,22.23
2019-02-12T10:03:21.704Z,23.33
2019-02-12T10:06:42.089Z,23.33
2019-02-12T10:09:40.648Z,22.37
2019-02-12T10:12:21.665Z,20.77
2019-02-12T10:15:36.073Z,21.53
2019-02-12T10:18:45.684Z,21.90
2019-02-12T10:22:05.933Z,20.73
2019-02-12T10:24:52.872Z,21.53
2019-02-12T10:28:02.502Z,20.73
2019-02-12T10:30:58.146Z,21.33
2019-02-12T10:33:29.028Z,21.93
2019-02-12T10:35:59.501Z,23.03
2019-02-12T10:38:30.130Z,24.33
2019-02-12T10:41:04.056Z,25.93
2019-02-12T10:43:35.173Z,25.47
2019-02-12T10:46:05.620Z,25.10
2019-02-12T10:48:36.407Z,26.07
2019-02-12T10:51:07.434Z,25.83
2019-02-12T10:53:38.040Z,28.27
2019-02-12T10:56:08.650Z,25.93
2019-02-12T10:58:39.293Z,24.60
2019-02-12T11:01:09.332Z,25.47
2019-02-12T11:03:39.279Z,28.13
2019-02-12T11:06:09.683Z,23.67
2019-02-12T11:08:40.652Z,25.83
2019-02-12T11:11:11.084Z,26.20
2019-02-12T11:13:41.359Z,23.73
2019-02-12T11:16:12.013Z,26.00
2019-02-12T11:18:42.074Z,24.07
2019-02-12T11:21:15.607Z,24.43
2019-02-12T11:23:47.041Z,23.83
2019-02-12T11:26:16.858Z,20.53
2019-02-12T11:28:46.990Z,21.53
2019-02-12T11:31:17.185Z,20.13
2019-02-12T11:33:47.198Z,22.60
2019-02-12T11:36:17.548Z,21.27
2019-02-12T11:38:48.030Z,29.30
2019-02-12T11:41:18.102Z,23.47
2019-02-12T11:43:48.402Z,21.00
2019-02-12T11:46:18.760Z,19.63
2019-02-12T11:48:48.941Z,18.73
2019-02-12T11:51:19.194Z,18.33
2019-02-12T11:53:49.542Z,18.07
2019-02-12T11:56:19.190Z,18.27
2019-02-12T11:58:49.347Z,18.13
2019-02-12T12:01:25.343Z,18.87
2019-02-12T12:03:55.536Z,18.53
2019-02-12T12:06:25.615Z,19.90
2019-02-12T12:08:55.981Z,19.67
2019-02-12T12:11:26.366Z,18.93
2019-02-12T12:13:55.959Z,19.50
2019-02-12T12:16:26.205Z,19.83
2019-02-12T12:18:56.375Z,19.57
2019-02-12T12:21:26.408Z,19.17
2019-02-12T12:23:56.607Z,19.47
2019-02-12T12:26:26.540Z,18.70
2019-02-12T12:28:56.639Z,18.43
2019-02-12T12:31:26.843Z,18.50
2019-02-12T12:33:56.910Z,18.33
2019-02-12T12:36:27.037Z,17.43
2019-02-12T12:38:57.219Z,18.87
2019-02-12T12:41:27.206Z,17.57
2019-02-12T12:43:57.578Z,16.87
2019-02-12T12:46:27.992Z,15.87
2019-02-12T12:48:59.243Z,16.40
2019-02-12T12:51:29.394Z,15.07
2019-02-12T12:53:59.703Z,17.13
2019-02-12T12:56:29.506Z,16.03
2019-02-12T12:58:59.711Z,16.37
2019-02-12T13:01:29.702Z,16.43
2019-02-12T13:04:00.400Z,16.40
2019-02-12T13:06:30.742Z,16.33
2019-02-12T13:09:01.071Z,16.23
2019-02-12T13:11:31.621Z,17.17
2019-02-12T13:14:02.495Z,16.47
2019-02-12T13:16:32.776Z,17.27
2019-02-12T13:19:02.701Z,16.40
2019-02-12T13:21:32.568Z,16.13
2019-02-12T13:24:02.644Z,17.37
2019-02-12T13:26:32.498Z,18.50
2019-02-12T13:29:02.191Z,17.07
2019-02-12T13:31:32.603Z,17.60
2019-02-12T13:34:02.995Z,15.47
2019-02-12T13:36:33.034Z,14.80
2019-02-12T13:39:03.578Z,14.60
2019-02-12T13:41:34.519Z,12.87
2019-02-12T13:44:06.161Z,12.23
2019-02-12T13:46:36.274Z,11.23
2019-02-12T13:49:06.477Z,10.67
2019-02-12T13:51:38.362Z,11.50
2019-02-12T13:54:08.528Z,12.60
2019-02-12T13:56:39.244Z,11.33
2019-02-12T13:59:09.755Z,11.47
2019-02-12T14:01:40.678Z,11.43
2019-02-12T14:04:10.573Z,10.50
2019-02-12T14:06:40.620Z,9.90
2019-02-12T14:09:11.135Z,11.53
2019-02-12T14:11:40.986Z,12.07
2019-02-12T14:14:11.186Z,10.17
2019-02-12T14:16:41.506Z,10.80
2019-02-12T14:19:11.593Z,10.83
2019-02-12T14:21:41.514Z,10.87
2019-02-12T14:24:11.688Z,12.97
2019-02-12T14:26:42.380Z,11.17
2019-02-12T14:29:12.449Z,12.30
2019-02-12T14:31:42.984Z,12.53
2019-02-12T14:34:13.099Z,10.17
2019-02-12T14:36:43.190Z,11.30
2019-02-12T14:39:13.648Z,11.17
2019-02-12T14:41:43.975Z,12.23
2019-02-12T14:44:13.778Z,11.90
2019-02-12T14:46:44.142Z,12.40
2019-02-12T14:49:14.291Z,12.30
2019-02-12T14:51:45.628Z,11.50
2019-02-12T14:54:15.945Z,11.97
2019-02-12T14:56:46.180Z,14.43
2019-02-12T14:59:19.354Z,13.03
2019-02-12T15:01:50.592Z,12.27
2019-02-12T15:04:21.742Z,11.83
2019-02-12T15:06:52.594Z,11.40
2019-02-12T15:09:23.085Z,11.83
2019-02-12T15:11:53.507Z,12.27
2019-02-12T15:14:24.072Z,10.60
2019-02-12T15:16:59.926Z,9.37
2019-02-12T15:19:35.384Z,10.17
2019-02-12T15:22:06.381Z,10.40
2019-02-12T15:24:36.686Z,10.87
2019-02-12T15:27:07.355Z,10.57
2019-02-12T15:29:38.630Z,11.20
2019-02-12T15:32:09.362Z,11.83
2019-02-12T15:34:39.256Z,11.97
2019-02-12T15:37:09.752Z,11.00
2019-02-12T15:39:39.805Z,10.93
2019-02-12T15:42:10.154Z,10.30
2019-02-12T15:44:40.279Z,11.13
2019-02-12T15:47:10.303Z,10.80
2019-02-12T15:49:40.651Z,9.77
2019-02-12T15:52:11.317Z,10.73
2019-02-12T15:54:41.527Z,9.70
2019-02-12T15:57:11.261Z,11.40
2019-02-12T15:59:41.406Z,9.97
2019-02-12T16:02:12.027Z,11.30
2019-02-12T16:04:43.147Z,10.83
2019-02-12T16:07:13.605Z,11.47
2019-02-12T16:09:43.553Z,16.47
2019-02-12T16:12:13.614Z,13.30
2019-02-12T16:14:44.504Z,12.27
2019-02-12T16:17:16.076Z,11.53
2019-02-12T16:19:47.012Z,11.50
2019-02-12T16:22:18.127Z,12.20
2019-02-12T16:24:48.890Z,12.07
2019-02-12T16:27:18.947Z,13.90
2019-02-12T16:29:50.470Z,12.53
2019-02-12T16:32:22.606Z,12.57
2019-02-12T16:34:52.355Z,12.07
2019-02-12T16:39:49.925Z,12.57
2019-02-12T16:42:19.665Z,13.03
2019-02-12T16:44:49.233Z,10.73
2019-02-12T16:47:19.037Z,11.10
2019-02-12T16:49:48.889Z,10.73
2019-02-12T16:52:20.835Z,11.63
2019-02-12T16:54:50.897Z,11.53
2019-02-12T16:57:21.911Z,11.83
2019-02-12T16:59:53.213Z,11.87
2019-02-12T17:02:25.184Z,15.40
2019-02-12T17:04:56.143Z,14.47
2019-02-12T17:07:27.580Z,16.23
2019-02-12T17:09:59.536Z,14.63
2019-02-12T17:12:30.350Z,14.23
2019-02-12T17:15:04.112Z,15.37
2019-02-12T17:17:34.883Z,16.55
2019-02-12T17:20:10.323Z,14.87
2019-02-12T17:22:42.888Z,14.13
2019-02-12T17:25:15.166Z,14.50
2019-02-12T17:27:46.073Z,15.53
2019-02-12T17:30:16.587Z,15.00
2019-02-12T17:32:50.545Z,15.70
2019-02-12T17:35:21.486Z,16.63
2019-02-12T17:37:52.311Z,17.40
2019-02-12T17:40:23.529Z,16.83
2019-02-12T17:42:54.408Z,16.53
2019-02-12T17:45:24.852Z,16.20
2019-02-12T17:47:55.388Z,16.40
2019-02-12T17:50:26.154Z,18.40
2019-02-12T17:52:57.240Z,18.20
2019-02-12T17:55:28.924Z,20.80
2019-02-12T17:58:00.462Z,20.27
2019-02-12T18:00:34.875Z,25.07
2019-02-12T18:03:06.028Z,23.93
2019-02-12T18:05:38.176Z,29.93
2019-02-12T18:08:10.184Z,28.30
2019-02-12T18:10:46.473Z,31.87
2019-02-12T18:13:18.467Z,33.10
2019-02-12T18:15:50.175Z,34.57
2019-02-12T18:18:21.326Z,33.53
2019-02-12T18:20:52.347Z,33.00
2019-02-12T18:23:25.440Z,30.93
2019-02-12T18:25:56.558Z,30.50
2019-02-12T18:28:27.348Z,28.20
2019-02-12T18:31:00.350Z,28.10
2019-02-12T18:33:31.134Z,28.47
2019-02-12T18:36:01.672Z,27.20
2019-02-12T18:38:32.994Z,25.87
2019-02-12T18:41:03.824Z,28.97
2019-02-12T18:43:34.972Z,23.30
2019-02-12T18:46:05.990Z,22.20
2019-02-12T18:48:39.771Z,20.83
2019-02-12T18:51:10.882Z,22.03
2019-02-12T18:53:41.910Z,30.47
2019-02-12T18:56:13.261Z,30.30
2019-02-12T18:58:44.088Z,26.07
2019-02-12T19:01:14.993Z,25.33
2019-02-12T19:03:45.969Z,24.10
2019-02-12T19:06:16.601Z,19.47
2019-02-12T19:08:47.525Z,24.10
2019-02-12T19:11:18.333Z,22.93
2019-02-12T19:13:50.126Z,22.60
2019-02-12T19:16:20.974Z,22.27
2019-02-12T19:18:53.441Z,21.07
2019-02-12T19:21:24.521Z,20.20
2019-02-12T19:23:55.313Z,19.07
2019-02-12T19:26:26.404Z,20.10
2019-02-12T19:28:59.873Z,22.27
2019-02-12T19:31:30.490Z,22.27
2019-02-12T19:34:02.587Z,21.50
2019-02-12T19:36:34.570Z,21.90
2019-02-12T19:39:11.787Z,23.00
2019-02-12T19:41:45.873Z,21.70
2019-02-12T19:44:17.021Z,21.73
2019-02-12T19:46:48.033Z,23.00
2019-02-12T19:49:19.183Z,28.93
2019-02-12T19:51:52.404Z,25.83
2019-02-12T19:54:26.378Z,23.57
2019-02-12T19:56:58.457Z,22.77
2019-02-12T19:59:29.348Z,22.70
2019-02-12T20:02:00.115Z,22.80
2019-02-12T20:04:32.563Z,24.63
2019-02-12T20:07:03.333Z,24.17
2019-02-12T20:09:36.073Z,26.17
2019-02-12T20:12:07.242Z,23.73
2019-02-12T20:14:38.098Z,24.73
2019-02-12T20:17:09.359Z,25.60
2019-02-12T20:19:39.926Z,27.57
2019-02-12T20:22:11.085Z,27.27
2019-02-12T20:24:41.927Z,27.17
2019-02-12T20:27:12.523Z,26.00
2019-02-12T20:29:43.741Z,27.23
2019-02-12T20:32:14.614Z,27.47
2019-02-12T20:34:46.181Z,26.67
2019-02-12T20:37:16.986Z,29.60
2019-02-12T20:39:47.756Z,27.70
2019-02-12T20:42:18.994Z,27.87
2019-02-12T20:44:49.755Z,26.33
2019-02-12T20:47:20.742Z,26.70
2019-02-12T20:49:51.952Z,28.87
2019-02-12T20:52:23.005Z,28.33
2019-02-12T20:54:53.741Z,29.20
2019-02-12T20:57:24.819Z,28.37
2019-02-12T20:59:55.386Z,28.70
2019-02-12T21:02:26.196Z,27.50
2019-02-12T21:04:58.963Z,30.07
2019-02-12T21:07:29.578Z,28.37
2019-02-12T21:10:00.517Z,28.63
2019-02-12T21:12:31.173Z,27.93
2019-02-12T21:15:01.871Z,28.43
2019-02-12T21:17:33.148Z,30.07
2019-02-12T21:20:04.071Z,29.57
2019-02-12T21:22:34.524Z,30.03
2019-02-12T21:25:05.167Z,28.33
2019-02-12T21:27:35.885Z,30.60
2019-02-12T21:30:06.960Z,28.47
2019-02-12T21:32:37.319Z,28.10
2019-02-12T21:35:13.210Z,27.83
2019-02-12T21:37:43.758Z,28.87
2019-02-12T21:40:18.916Z,25.93
2019-02-12T21:42:49.231Z,26.20
2019-02-12T21:45:20.240Z,29.67
2019-02-12T21:47:49.769Z,28.17
2019-02-12T21:50:19.440Z,28.93
2019-02-12T21:52:49.544Z,30.23
2019-02-12T21:55:19.740Z,31.07
2019-02-12T21:57:49.888Z,28.87
2019-02-12T22:00:19.768Z,29.30
2019-02-12T22:02:49.415Z,32.13
2019-02-12T22:05:19.857Z,31.23
2019-02-12T22:07:49.844Z,32.00
2019-02-12T22:10:20.305Z,31.60
2019-02-12T22:12:50.930Z,33.93
2019-02-12T22:15:20.670Z,32.80
2019-02-12T22:17:50.437Z,32.27
2019-02-12T22:20:20.038Z,35.23
2019-02-12T22:22:49.749Z,31.80
2019-02-12T22:25:19.830Z,33.30
2019-02-12T22:27:49.644Z,31.93
2019-02-12T22:30:20.235Z,32.47
2019-02-12T22:32:50.142Z,32.57
2019-02-12T22:35:19.902Z,31.50
2019-02-12T22:37:49.594Z,30.97
2019-02-12T22:40:19.568Z,31.17
2019-02-12T22:42:49.531Z,31.20
2019-02-12T22:45:19.809Z,30.97
2019-02-12T22:47:49.696Z,28.83
2019-02-12T22:50:20.141Z,28.47
2019-02-12T22:52:50.009Z,29.53
2019-02-12T22:55:19.776Z,30.80
2019-02-12T22:57:49.979Z,31.40
2019-02-12T23:01:02.683Z,31.50
2019-02-12T23:03:33.000Z,28.33
2019-02-12T23:06:02.805Z,28.77
2019-02-12T23:08:32.749Z,27.43
2019-02-12T23:11:01.903Z,28.63
2019-02-12T23:13:31.930Z,27.80
2019-02-12T23:16:01.659Z,25.70
2019-02-12T23:18:31.267Z,25.97
2019-02-12T23:21:02.172Z,27.00
2019-02-12T23:23:32.339Z,25.57
2019-02-12T23:26:02.912Z,24.43
2019-02-12T23:28:32.693Z,24.07
2019-02-12T23:31:02.844Z,23.70
2019-02-12T23:33:33.113Z,24.60
2019-02-12T23:36:03.033Z,24.37
2019-02-12T23:38:33.050Z,25.40
2019-02-12T23:41:02.908Z,23.93
2019-02-12T23:43:32.998Z,25.20
2019-02-12T23:46:03.033Z,24.57
2019-02-12T23:48:33.014Z,24.23
2019-02-12T23:51:03.185Z,23.93
2019-02-12T23:53:33.173Z,24.10
2019-02-12T23:56:03.011Z,24.67
2019-02-12T23:58:32.932Z,24.50
